AirNav   TITAN Aviation Fuels
 
 738 users online  

1WN3 Danielson Field Airport
Star Prairie, Wisconsin, USA

GOING TO STAR PRAIRIE?


FAA INFORMATION EFFECTIVE 26 JANUARY 2023

Location

FAA Identifier: 1WN3
Lat/Long: 45-12-42.7000N 092-32-09.7000W
45-12.711667N 092-32.161667W
45.2118611,-92.5360278
(estimated)
Elevation: 1000 ft. / 305 m (estimated)
Variation: 01E (2000)
From city: 1 mile N of STAR PRAIRIE, WI
Time zone: UTC -6 (UTC -5 during Daylight Saving Time)
Zip code: 54026

Airport Operations

Airport use: Private use. Permission required prior to landing
Activation date: 08/2001
Control tower: no
ARTCC: MINNEAPOLIS CENTER
FSS: GREEN BAY FLIGHT SERVICE STATION
Attendance: UNATNDD
Wind indicator: yes
Segmented circle: no

Airport Communications

WX AWOS-3 at RNH (4 nm S): 120.0 (715-246-3202)
WX AWOS-3 at OEO (9 nm NW): 119.925 (715-294-3845)
WX AWOS-3 at 21D (19 nm SW): 120.075 (651-779-5949)

Nearby radio navigation aids

VOR radial/distance  VOR name  Freq  Var
MSPr055/35.2MINNEAPOLIS VOR/DME115.3002E
GEPr078/35.6GOPHER VORTAC117.3006E

 
NDB name  Hdg/Dist  Freq  Var  ID
RUSH CITY147/34.028202EROS .-. --- ...
BIG DOCTOR192/37.320301WBXR -... -..- .-.

Airport Services

Runway Information

Runway 12/30

Dimensions: 2000 x 60 ft. / 610 x 18 m
Surface: turf
RUNWAY 12  RUNWAY 30
Traffic pattern: leftleft

Runway 3/21

Dimensions: 1600 x 50 ft. / 488 x 15 m
Surface: turf
RUNWAY 3  RUNWAY 21
Traffic pattern: leftleft

Airport Ownership and Management from official FAA records

Ownership: Privately-owned
Owner: RICHARD M. DANIELSON
1 NORTH HWY 65
STAR PRAIRIE, WI 54026
Phone 715-248-3434
Manager: RICHARD M. DANIELSON
1 NORTH HWY 65
STAR PRAIRIE, WI 54026
Phone 715-248-3434

Airport Operational Statistics

Aircraft based on the field: 1
Single engine airplanes: 1
    

Additional Remarks

ALL TFC REMAIN N OF RYS.
FOR CD CTC MINNEAPOLIS ARTCC AT 651-463-5588.

Instrument Procedures

There are no published instrument procedures at 1WN3.

Some nearby airports with instrument procedures:

KRNH - New Richmond Regional Airport (4 nm S)
KAHH - Amery Municipal Airport (8 nm NE)
KOEO - L O Simenstad Municipal Airport (9 nm NW)
21D - Lake Elmo Airport (19 nm SW)
3T3 - Boyceville Municipal Airport (24 nm SE)
 
Loc | Ops | Rwys | IFR | FBO | Links
Com | Nav | Svcs | Stats | Notes
Area around 1WN3 (Danielson Field Airport)
 
Road maps at: MapQuest Bing Google
 
Aerial photo
No photo
 
Sectional chart

 
Airport distance calculator
Flying to Danielson Field Airport? Find the distance to fly.

From to 1WN3

Sunrise and sunset
Times for 27-Jan-2023
 Local
(UTC-6)
 Zulu
(UTC)
Morning civil twilight07:0513:05
Sunrise07:3713:37
Sunset17:0923:09
Evening civil twilight17:4123:41

Current date and time
Zulu (UTC)  27-Jan-2023 12:00:40
Local (UTC-6)  27-Jan-2023 06:00:40
 
METAR
KRNH 
4nm S 
271135Z AUTO 19011KT 2 1/2SM -SN OVC011 M04/M04 A2939 RMK AO2 T10421042
KOEO 
8nm NW 
271135Z AUTO 18006KT 5SM OVC012 M04/M04 A2942 RMK AO2 T10391039 PWINO
K21D 
19nm SW 
271155Z AUTO 19009KT 2 1/2SM -SN M02/M03 A2940 RMK AO2
TAF
KRNH 
4nm S 
271000Z 2710/2806 18015G24KT 4SM -SN BR OVC015 TEMPO 2710/2712 2SM -SN BR BKN008 FM271300 26013G21KT 4SM BLSN OVC009 FM272200 30016G24KT P6SM BKN025 FM280200 30013KT P6SM BKN040
NOTAMs
Click for the latest NOTAMs
NOTAMs are issued by the DoD/FAA and will open in a separate window not controlled by AirNav.

 

 
 

Would you like to see your business listed on this page?

 If your business provides an interesting product or service to pilots, flight crews, aircraft, or users of the Danielson Field Airport, you should consider listing it here.  To start the listing process, click on the button below
 
Add a business
 

Other Pages about Danielson Field Airport

Update a link
 
Copyright © AirNav, LLC. All rights reserved. Privacy Policy  Contact